Time;durP1;ratioP1;P1;durP2;ratioP2;P2;SDS_P1;SDS_P2;PMS_P1;PMS_P2;Temp;Humidity;BMP_temperature;BMP_pressure;BME280_temperature;BME280_humidity;BME280_pressure;Samples;Min_cycle;Max_cycle;Signal;HPM_P1;HPM_P2
2023/09/13 00:00:47;;;;;;;7.07;2.83;;;;;;;;;;4988724;28;20042;-65
2023/09/13 00:03:14;;;;;;;4.32;2.50;;;;;;;;;;4989271;28;20855;-65
2023/09/13 00:05:42;;;;;;;5.18;2.28;;;;;;;;;;4991235;28;20060;-65
2023/09/13 00:08:09;;;;;;;5.25;2.55;;;;;;;;;;4987879;28;20046;-66
2023/09/13 00:10:37;;;;;;;4.90;2.70;;;;;;;;;;4989793;28;20061;-66
2023/09/13 00:13:04;;;;;;;6.07;2.55;;;;;;;;;;4991083;28;20057;-66
2023/09/13 00:15:31;;;;;;;5.32;2.63;;;;;;;;;;4989069;28;20051;-65
2023/09/13 00:17:57;;;;;;;5.05;2.70;;;;;;;;;;4989648;28;20085;-65
2023/09/13 00:20:24;;;;;;;5.15;2.47;;;;;;;;;;4989527;28;20039;-65
2023/09/13 00:22:51;;;;;;;5.20;2.60;;;;;;;;;;4991568;28;20042;-65
2023/09/13 00:25:17;;;;;;;6.40;3.70;;;;;;;;;;4991213;28;20052;-65
2023/09/13 00:27:45;;;;;;;6.82;3.90;;;;;;;;;;4991276;28;20137;-65
2023/09/13 00:30:12;;;;;;;9.00;4.70;;;;;;;;;;4990961;28;20057;-67
2023/09/13 00:32:39;;;;;;;6.80;3.80;;;;;;;;;;4990068;28;20054;-65
2023/09/13 00:35:06;;;;;;;6.40;3.80;;;;;;;;;;4991156;28;20052;-65
2023/09/13 00:37:33;;;;;;;6.25;3.90;;;;;;;;;;4990968;28;20622;-65
2023/09/13 00:39:59;;;;;;;6.47;3.67;;;;;;;;;;4989757;28;20048;-66
2023/09/13 00:42:28;;;;;;;6.35;3.58;;;;;;;;;;4990986;28;20043;-65
2023/09/13 00:44:55;;;;;;;5.57;2.97;;;;;;;;;;4990683;28;20054;-65
2023/09/13 00:47:23;;;;;;;8.18;3.28;;;;;;;;;;4988490;28;20065;-66
2023/09/13 00:49:49;;;;;;;8.07;3.60;;;;;;;;;;4986212;28;20748;-66
2023/09/13 00:52:17;;;;;;;5.95;3.38;;;;;;;;;;4991130;28;20129;-66
2023/09/13 00:54:44;;;;;;;6.35;2.75;;;;;;;;;;4987997;28;20047;-66
2023/09/13 00:57:12;;;;;;;6.00;3.10;;;;;;;;;;4990564;28;20081;-66
2023/09/13 00:59:38;;;;;;;6.03;2.83;;;;;;;;;;4990647;28;20487;-66
2023/09/13 01:02:07;;;;;;;4.78;2.70;;;;;;;;;;4990137;28;21116;-66
2023/09/13 01:04:35;;;;;;;5.40;2.80;;;;;;;;;;4990121;28;20077;-66
2023/09/13 01:07:02;;;;;;;6.30;2.70;;;;;;;;;;4990415;28;20053;-66
2023/09/13 01:09:29;;;;;;;5.53;3.40;;;;;;;;;;4990320;28;20054;-66
2023/09/13 01:11:56;;;;;;;6.63;3.53;;;;;;;;;;4990657;28;20053;-66
2023/09/13 01:14:22;;;;;;;5.43;3.25;;;;;;;;;;4989697;28;20530;-66
2023/09/13 01:16:53;;;;;;;4.50;2.80;;;;;;;;;;4990249;28;20050;-66
2023/09/13 01:19:47;;;;;;;5.80;3.28;;;;;;;;;;4990374;28;20061;-67
2023/09/13 01:22:33;;;;;;;5.43;3.25;;;;;;;;;;4990409;28;20085;-66
2023/09/13 01:25:32;;;;;;;6.78;3.80;;;;;;;;;;4985114;28;20654;-66
2023/09/13 01:28:12;;;;;;;6.32;3.63;;;;;;;;;;4988748;28;20448;-66
2023/09/13 01:30:41;;;;;;;5.88;3.28;;;;;;;;;;4985523;28;20399;-66
2023/09/13 01:33:08;;;;;;;6.70;3.85;;;;;;;;;;4983084;28;20061;-66
2023/09/13 01:35:34;;;;;;;6.38;3.30;;;;;;;;;;4989334;28;20046;-67
2023/09/13 01:38:05;;;;;;;5.78;3.60;;;;;;;;;;4989584;28;20062;-66
2023/09/13 01:40:37;;;;;;;5.75;3.58;;;;;;;;;;4988339;28;20046;-65
2023/09/13 01:43:05;;;;;;;7.82;4.15;;;;;;;;;;4990069;28;20427;-66
2023/09/13 01:45:34;;;;;;;7.80;4.07;;;;;;;;;;4989229;28;20046;-65
2023/09/13 01:48:03;;;;;;;8.20;3.78;;;;;;;;;;4988602;28;20050;-65
2023/09/13 01:50:30;;;;;;;6.13;3.58;;;;;;;;;;4985070;28;20050;-65
2023/09/13 01:52:57;;;;;;;6.25;3.70;;;;;;;;;;4983762;28;20058;-65
2023/09/13 01:55:24;;;;;;;6.22;4.15;;;;;;;;;;4989655;28;20476;-65
2023/09/13 01:57:51;;;;;;;7.30;4.13;;;;;;;;;;4989072;28;20050;-66
2023/09/13 02:00:18;;;;;;;6.72;3.85;;;;;;;;;;4987343;28;20052;-65
2023/09/13 02:02:44;;;;;;;6.18;3.72;;;;;;;;;;4986486;28;20046;-65
2023/09/13 02:05:12;;;;;;;7.28;3.45;;;;;;;;;;4987933;28;20046;-67
2023/09/13 02:07:39;;;;;;;6.32;3.83;;;;;;;;;;4987416;28;20046;-65
2023/09/13 02:10:07;;;;;;;5.40;3.63;;;;;;;;;;5000876;23;20042;-83
2023/09/13 02:12:33;;;;;;;5.97;3.40;;;;;;;;;;4970168;28;20057;-83
2023/09/13 02:15:00;;;;;;;6.05;3.45;;;;;;;;;;4974717;28;20138;-84
2023/09/13 02:17:26;;;;;;;6.15;3.53;;;;;;;;;;4978731;28;20489;-85
2023/09/13 02:19:53;;;;;;;5.93;3.25;;;;;;;;;;4979578;28;20054;-83
2023/09/13 02:22:21;;;;;;;5.57;3.58;;;;;;;;;;4983922;28;20055;-84
2023/09/13 02:24:47;;;;;;;7.90;3.80;;;;;;;;;;4981341;28;20047;-84
2023/09/13 02:27:14;;;;;;;6.75;3.97;;;;;;;;;;4978597;28;20047;-83
2023/09/13 02:29:41;;;;;;;8.77;4.80;;;;;;;;;;4978235;28;20057;-83
2023/09/13 02:32:07;;;;;;;5.60;3.75;;;;;;;;;;5004538;28;20035;-84
2023/09/13 02:34:35;;;;;;;5.45;3.60;;;;;;;;;;4985485;28;20047;-85
2023/09/13 02:37:02;;;;;;;6.28;3.63;;;;;;;;;;4991541;28;20052;-83
2023/09/13 02:39:34;;;;;;;6.78;3.30;;;;;;;;;;4978524;28;20082;-83
2023/09/13 02:42:01;;;;;;;6.47;4.10;;;;;;;;;;4976906;28;20081;-85
2023/09/13 02:44:27;;;;;;;7.35;3.67;;;;;;;;;;4983712;28;20086;-84
2023/09/13 02:46:54;;;;;;;7.32;4.10;;;;;;;;;;4980412;28;20057;-83
2023/09/13 02:49:21;;;;;;;5.63;3.70;;;;;;;;;;4990198;28;20054;-84
2023/09/13 02:51:48;;;;;;;6.30;3.70;;;;;;;;;;4985928;28;20055;-83
2023/09/13 02:54:14;;;;;;;6.38;3.65;;;;;;;;;;4991661;28;20054;-83
2023/09/13 02:56:42;;;;;;;6.22;3.90;;;;;;;;;;4979577;28;20083;-83
2023/09/13 02:59:09;;;;;;;7.03;3.65;;;;;;;;;;4978969;28;20046;-84
2023/09/13 03:01:36;;;;;;;6.90;3.70;;;;;;;;;;4981470;28;20078;-84
2023/09/13 03:04:03;;;;;;;7.32;3.53;;;;;;;;;;4987693;28;20090;-84
2023/09/13 03:06:29;;;;;;;6.45;3.90;;;;;;;;;;4980167;28;20308;-84
2023/09/13 03:08:56;;;;;;;6.15;3.40;;;;;;;;;;4983762;28;20109;-85
2023/09/13 03:11:23;;;;;;;7.03;3.67;;;;;;;;;;4985416;28;20071;-85
2023/09/13 03:13:51;;;;;;;7.15;4.03;;;;;;;;;;4988264;28;20102;-84
2023/09/13 03:16:19;;;;;;;6.97;4.30;;;;;;;;;;4987133;28;20043;-85
2023/09/13 03:18:46;;;;;;;6.40;3.90;;;;;;;;;;4988438;28;20504;-84
2023/09/13 03:21:14;;;;;;;7.28;4.00;;;;;;;;;;4990134;28;20065;-84
2023/09/13 03:23:41;;;;;;;6.40;4.30;;;;;;;;;;4982551;28;20061;-84
2023/09/13 03:26:13;;;;;;;6.85;4.15;;;;;;;;;;4995797;28;20106;-86
2023/09/13 03:28:39;;;;;;;5.78;3.88;;;;;;;;;;4991327;28;20051;-85
2023/09/13 03:31:11;;;;;;;7.25;4.05;;;;;;;;;;4990109;28;20134;-84
2023/09/13 03:33:39;;;;;;;6.40;4.32;;;;;;;;;;4981492;28;20050;-83
2023/09/13 03:36:06;;;;;;;6.55;4.13;;;;;;;;;;4974727;28;20390;-83
2023/09/13 03:38:33;;;;;;;5.93;4.10;;;;;;;;;;4985741;28;20054;-82
2023/09/13 03:41:01;;;;;;;6.28;4.18;;;;;;;;;;4981184;28;20074;-83
2023/09/13 03:43:28;;;;;;;7.78;4.45;;;;;;;;;;4982576;28;20127;-83
2023/09/13 03:45:55;;;;;;;7.13;4.25;;;;;;;;;;4979344;28;20122;-84
2023/09/13 03:48:23;;;;;;;6.25;4.20;;;;;;;;;;4977572;28;20043;-84
2023/09/13 03:50:50;;;;;;;6.35;3.75;;;;;;;;;;4985402;28;20311;-83
2023/09/13 03:53:17;;;;;;;7.82;4.60;;;;;;;;;;4983895;28;20054;-84
2023/09/13 03:55:44;;;;;;;7.22;4.68;;;;;;;;;;4983510;28;20057;-84
2023/09/13 03:58:10;;;;;;;8.77;4.50;;;;;;;;;;4985616;28;20046;-85
2023/09/13 04:00:37;;;;;;;6.50;4.93;;;;;;;;;;4985452;28;20051;-84
2023/09/13 04:03:05;;;;;;;8.88;4.57;;;;;;;;;;4992941;28;20043;-84
2023/09/13 04:05:33;;;;;;;8.50;4.72;;;;;;;;;;4991889;28;20050;-84
2023/09/13 04:08:00;;;;;;;8.15;5.05;;;;;;;;;;4978746;28;20070;-83
2023/09/13 04:10:26;;;;;;;7.82;4.88;;;;;;;;;;4988032;28;20118;-84
2023/09/13 04:12:53;;;;;;;8.30;5.25;;;;;;;;;;4977061;28;20061;-85
2023/09/13 04:15:20;;;;;;;7.88;5.43;;;;;;;;;;4981655;28;20050;-84
2023/09/13 04:17:46;;;;;;;7.68;5.15;;;;;;;;;;4981825;28;20047;-84
2023/09/13 04:20:13;;;;;;;7.22;4.68;;;;;;;;;;4977045;28;20121;-85
2023/09/13 04:22:41;;;;;;;7.90;5.13;;;;;;;;;;4982954;28;20051;-84
2023/09/13 04:25:10;;;;;;;9.00;4.97;;;;;;;;;;4981951;28;20120;-84
2023/09/13 04:27:37;;;;;;;9.02;5.00;;;;;;;;;;4988064;28;20097;-83
2023/09/13 04:30:04;;;;;;;8.18;5.00;;;;;;;;;;4989337;28;20055;-85
2023/09/13 04:32:30;;;;;;;7.80;5.18;;;;;;;;;;5005873;28;20110;-85
2023/09/13 04:34:57;;;;;;;10.10;5.90;;;;;;;;;;4999157;28;20122;-85
2023/09/13 04:37:25;;;;;;;10.75;6.15;;;;;;;;;;5000017;28;20042;-86
2023/09/13 04:39:53;;;;;;;9.45;5.20;;;;;;;;;;5009516;28;20057;-85
2023/09/13 04:42:20;;;;;;;8.68;5.50;;;;;;;;;;5006688;28;20042;-84
2023/09/13 04:44:47;;;;;;;8.35;5.80;;;;;;;;;;5003649;28;20591;-84
2023/09/13 04:47:13;;;;;;;7.15;5.47;;;;;;;;;;4993074;28;20069;-84
2023/09/13 04:49:40;;;;;;;8.93;5.47;;;;;;;;;;4994244;28;20738;-82
2023/09/13 04:52:09;;;;;;;7.85;5.47;;;;;;;;;;4981962;28;20126;-84
2023/09/13 04:54:36;;;;;;;7.60;6.13;;;;;;;;;;4979897;28;20110;-84
2023/09/13 04:57:05;;;;;;;9.15;5.75;;;;;;;;;;4984392;28;20394;-84
2023/09/13 04:59:42;;;;;;;8.55;5.30;;;;;;;;;;4983783;28;20053;-85
2023/09/13 05:02:08;;;;;;;11.02;6.38;;;;;;;;;;4976445;28;20393;-84
2023/09/13 05:04:35;;;;;;;7.47;5.25;;;;;;;;;;4976802;28;20043;-85
2023/09/13 05:07:02;;;;;;;8.32;5.93;;;;;;;;;;4986620;28;20051;-83
2023/09/13 05:09:28;;;;;;;11.55;6.40;;;;;;;;;;4985646;28;20047;-83
2023/09/13 05:11:55;;;;;;;12.32;7.03;;;;;;;;;;4978328;28;20130;-85
2023/09/13 05:14:23;;;;;;;9.00;6.50;;;;;;;;;;4984107;28;20149;-81
2023/09/13 05:16:50;;;;;;;10.10;6.93;;;;;;;;;;4978201;28;20112;-84
2023/09/13 05:19:17;;;;;;;10.38;6.88;;;;;;;;;;4985850;28;20420;-84
2023/09/13 05:21:44;;;;;;;10.43;7.32;;;;;;;;;;4986171;28;20047;-83
2023/09/13 05:24:11;;;;;;;11.85;7.28;;;;;;;;;;4984197;28;20054;-83
2023/09/13 05:26:37;;;;;;;10.43;7.20;;;;;;;;;;4988897;28;20130;-85
2023/09/13 05:29:04;;;;;;;14.27;7.45;;;;;;;;;;4985537;28;20069;-84
2023/09/13 05:31:32;;;;;;;10.68;7.63;;;;;;;;;;4982329;28;20061;-85
2023/09/13 05:33:59;;;;;;;10.00;6.78;;;;;;;;;;4982510;28;20051;-86
2023/09/13 05:36:25;;;;;;;10.27;6.25;;;;;;;;;;4984168;28;20044;-83
2023/09/13 05:38:52;;;;;;;11.75;6.72;;;;;;;;;;4980453;28;20057;-84
2023/09/13 05:41:19;;;;;;;11.18;6.68;;;;;;;;;;4986306;28;20050;-84
2023/09/13 05:43:45;;;;;;;10.82;7.00;;;;;;;;;;4982945;28;20575;-83
2023/09/13 05:46:12;;;;;;;15.43;7.38;;;;;;;;;;4984600;28;20134;-84
2023/09/13 05:48:40;;;;;;;11.38;7.43;;;;;;;;;;4978178;28;20043;-84
2023/09/13 05:51:07;;;;;;;10.35;7.03;;;;;;;;;;4979280;28;20130;-84
2023/09/13 05:53:33;;;;;;;13.07;7.53;;;;;;;;;;4982848;28;20059;-84
2023/09/13 05:56:00;;;;;;;10.95;7.45;;;;;;;;;;4981790;28;20053;-85
2023/09/13 05:58:26;;;;;;;9.63;6.95;;;;;;;;;;4978955;28;20110;-85
2023/09/13 06:00:55;;;;;;;10.82;6.70;;;;;;;;;;4986835;28;20050;-85
2023/09/13 06:03:22;;;;;;;13.75;7.72;;;;;;;;;;4980442;28;20106;-84
2023/09/13 06:05:51;;;;;;;14.52;7.03;;;;;;;;;;4986824;28;20106;-85
2023/09/13 06:08:17;;;;;;;12.07;7.28;;;;;;;;;;4985557;28;20133;-84
2023/09/13 06:10:46;;;;;;;11.95;7.68;;;;;;;;;;4983457;28;20126;-83
2023/09/13 06:13:12;;;;;;;12.55;7.53;;;;;;;;;;4981002;28;20110;-83
2023/09/13 06:15:39;;;;;;;14.60;7.90;;;;;;;;;;4976784;28;20141;-84
2023/09/13 06:18:06;;;;;;;15.90;8.43;;;;;;;;;;4971901;28;20049;-83
2023/09/13 06:20:32;;;;;;;9.20;7.07;;;;;;;;;;4980623;28;20509;-83
2023/09/13 06:23:01;;;;;;;10.02;6.97;;;;;;;;;;4982251;28;20057;-84
2023/09/13 06:25:27;;;;;;;9.77;6.88;;;;;;;;;;4970651;28;20054;-84
2023/09/13 06:27:55;;;;;;;11.02;7.47;;;;;;;;;;4976566;28;20051;-83
2023/09/13 06:30:21;;;;;;;11.80;8.48;;;;;;;;;;4975510;28;20058;-84
2023/09/13 06:32:48;;;;;;;16.90;10.05;;;;;;;;;;4974765;28;20420;-84
2023/09/13 06:35:15;;;;;;;14.82;10.40;;;;;;;;;;4982929;28;20061;-84
2023/09/13 06:37:42;;;;;;;18.45;11.55;;;;;;;;;;4980768;28;20425;-84
2023/09/13 06:40:10;;;;;;;14.43;9.43;;;;;;;;;;4986515;28;20061;-83
2023/09/13 06:42:37;;;;;;;12.57;8.02;;;;;;;;;;4974274;28;20047;-85
2023/09/13 06:45:04;;;;;;;14.30;8.90;;;;;;;;;;4978865;28;20069;-84
2023/09/13 06:47:33;;;;;;;13.65;9.35;;;;;;;;;;4976760;28;20424;-83
2023/09/13 06:50:00;;;;;;;14.68;9.27;;;;;;;;;;4973587;28;20603;-84
2023/09/13 06:52:27;;;;;;;16.55;8.57;;;;;;;;;;4974185;28;20097;-84
2023/09/13 06:54:53;;;;;;;12.60;7.15;;;;;;;;;;4969631;28;20054;-84
2023/09/13 06:57:21;;;;;;;10.25;7.28;;;;;;;;;;4974150;28;20126;-84
2023/09/13 06:59:48;;;;;;;11.23;6.85;;;;;;;;;;4982582;28;20109;-84
2023/09/13 07:02:14;;;;;;;11.52;7.75;;;;;;;;;;4976106;28;20592;-83
2023/09/13 07:04:56;;;;;;;11.70;8.05;;;;;;;;;;4972937;28;20057;-83
2023/09/13 07:07:23;;;;;;;12.85;8.18;;;;;;;;;;4974818;28;20062;-84
2023/09/13 07:09:49;;;;;;;11.00;7.63;;;;;;;;;;4976957;28;20106;-84
2023/09/13 07:12:16;;;;;;;9.93;7.50;;;;;;;;;;4975651;28;20559;-83
2023/09/13 07:14:44;;;;;;;10.57;7.70;;;;;;;;;;4976082;28;20414;-85
2023/09/13 07:17:10;;;;;;;9.80;6.70;;;;;;;;;;4980252;28;20118;-88
2023/09/13 07:19:37;;;;;;;9.23;6.53;;;;;;;;;;4991685;28;20054;-87
2023/09/13 07:22:04;;;;;;;9.73;6.22;;;;;;;;;;4994959;28;20222;-86
2023/09/13 07:24:30;;;;;;;11.23;6.20;;;;;;;;;;4999354;28;20061;-84
2023/09/13 07:26:57;;;;;;;9.20;5.78;;;;;;;;;;4996243;28;20069;-88
2023/09/13 07:29:24;;;;;;;10.60;6.05;;;;;;;;;;4996261;28;20031;-86
2023/09/13 07:31:52;;;;;;;10.15;5.60;;;;;;;;;;4994821;28;20138;-87
2023/09/13 07:34:19;;;;;;;9.80;5.80;;;;;;;;;;4981701;28;20042;-86
2023/09/13 07:36:45;;;;;;;10.45;5.65;;;;;;;;;;4982132;28;20047;-83
2023/09/13 07:39:12;;;;;;;8.80;5.53;;;;;;;;;;4980922;28;20095;-80
2023/09/13 07:41:39;;;;;;;7.72;5.60;;;;;;;;;;4979026;28;20081;-82
2023/09/13 07:44:06;;;;;;;9.75;5.97;;;;;;;;;;4974579;28;20042;-81
2023/09/13 07:46:33;;;;;;;10.18;6.50;;;;;;;;;;4980018;28;20117;-85
2023/09/13 07:49:04;;;;;;;7.03;5.10;;;;;;;;;;4982538;28;20127;-82
2023/09/13 07:51:31;;;;;;;9.55;6.18;;;;;;;;;;4976071;28;20043;-84
2023/09/13 07:54:04;;;;;;;9.93;6.30;;;;;;;;;;4980201;28;20078;-82
2023/09/13 07:56:37;;;;;;;10.70;6.07;;;;;;;;;;4985525;28;20054;-85
2023/09/13 07:59:05;;;;;;;11.95;6.03;;;;;;;;;;4985084;28;20043;-83
2023/09/13 08:01:33;;;;;;;11.07;7.82;;;;;;;;;;4985769;28;20051;-82
2023/09/13 08:04:02;;;;;;;11.50;6.55;;;;;;;;;;4988669;28;20111;-84
2023/09/13 08:06:30;;;;;;;14.27;6.70;;;;;;;;;;4985480;28;20436;-83
2023/09/13 08:08:59;;;;;;;13.00;6.25;;;;;;;;;;4987042;28;20107;-84
2023/09/13 08:11:26;;;;;;;9.57;6.20;;;;;;;;;;4976195;28;20058;-81
2023/09/13 08:13:53;;;;;;;9.32;5.80;;;;;;;;;;4977637;28;20059;-85
2023/09/13 08:16:20;;;;;;;10.18;6.45;;;;;;;;;;4980305;28;20086;-84
2023/09/13 08:18:46;;;;;;;25.30;12.45;;;;;;;;;;4981143;28;20052;-82
2023/09/13 08:21:14;;;;;;;19.98;12.10;;;;;;;;;;4984434;28;20624;-80
2023/09/13 08:23:41;;;;;;;14.27;8.95;;;;;;;;;;4987312;28;20064;-79
2023/09/13 08:26:08;;;;;;;9.82;6.88;;;;;;;;;;4988473;28;20070;-80
2023/09/13 08:28:35;;;;;;;12.57;9.07;;;;;;;;;;4982049;28;20043;-82
2023/09/13 08:31:03;;;;;;;10.05;6.13;;;;;;;;;;4988679;28;20682;-80
2023/09/13 08:33:30;;;;;;;9.27;5.88;;;;;;;;;;4982496;28;20065;-80
2023/09/13 08:35:56;;;;;;;8.98;5.78;;;;;;;;;;4978445;28;20106;-81
2023/09/13 08:38:24;;;;;;;10.27;7.07;;;;;;;;;;4985722;28;20133;-80
2023/09/13 08:40:54;;;;;;;14.20;7.22;;;;;;;;;;4976181;28;20054;-81
2023/09/13 08:43:22;;;;;;;9.23;5.78;;;;;;;;;;4989271;28;20039;-81
2023/09/13 08:45:50;;;;;;;8.82;5.30;;;;;;;;;;4980974;28;20129;-81
2023/09/13 08:48:19;;;;;;;7.55;5.32;;;;;;;;;;4985407;28;20051;-79
2023/09/13 08:50:47;;;;;;;7.20;5.03;;;;;;;;;;4979433;28;20141;-80
2023/09/13 08:53:15;;;;;;;7.72;4.88;;;;;;;;;;4982666;28;20050;-80
2023/09/13 08:55:46;;;;;;;6.55;4.85;;;;;;;;;;4989743;28;20113;-81
2023/09/13 08:58:12;;;;;;;7.82;4.80;;;;;;;;;;4975829;28;20053;-81
2023/09/13 09:00:42;;;;;;;7.50;5.47;;;;;;;;;;4975239;28;20053;-80
2023/09/13 09:03:12;;;;;;;8.45;5.15;;;;;;;;;;4978576;28;20576;-80
2023/09/13 09:05:39;;;;;;;7.97;5.88;;;;;;;;;;4971585;28;20058;-81
2023/09/13 09:08:10;;;;;;;9.52;5.00;;;;;;;;;;4976164;28;20039;-80
2023/09/13 09:10:37;;;;;;;8.73;5.35;;;;;;;;;;4976382;28;20061;-80
2023/09/13 09:13:10;;;;;;;12.48;5.68;;;;;;;;;;4987837;28;20247;-82
2023/09/13 09:15:39;;;;;;;10.23;5.63;;;;;;;;;;4975293;28;20532;-81
2023/09/13 09:18:09;;;;;;;7.63;5.47;;;;;;;;;;4972434;28;20043;-81
2023/09/13 09:20:39;;;;;;;8.43;5.75;;;;;;;;;;4976285;28;20663;-81
2023/09/13 09:23:08;;;;;;;8.53;5.37;;;;;;;;;;4982812;28;20050;-83
2023/09/13 09:25:39;;;;;;;9.32;5.95;;;;;;;;;;4989902;28;20047;-82
2023/09/13 09:28:11;;;;;;;10.63;6.07;;;;;;;;;;4992461;28;20117;-85
2023/09/13 09:30:45;;;;;;;8.65;5.88;;;;;;;;;;4982639;28;20069;-85
2023/09/13 09:36:26;;;;;;;9.63;5.97;;;;;;;;;;4963154;28;20047;-83
2023/09/13 09:42:22;;;;;;;8.68;5.85;;;;;;;;;;4956399;28;20051;-86
2023/09/13 09:45:27;;;;;;;8.27;5.90;;;;;;;;;;4974729;28;20054;-85
2023/09/13 09:48:10;;;;;;;8.80;5.30;;;;;;;;;;4986826;28;20162;-84
2023/09/13 09:56:51;;;;;;;7.45;5.82;;;;;;;;;;4981883;28;20146;-84
2023/09/13 09:59:53;;;;;;;8.07;5.53;;;;;;;;;;4989546;28;20090;-85
2023/09/13 10:06:26;;;;;;;13.00;6.15;;;;;;;;;;4996557;28;20034;-90
2023/09/13 10:15:12;;;;;;;9.10;6.50;;;;;;;;;;4961255;28;20134;-88
2023/09/13 10:17:40;;;;;;;9.20;6.05;;;;;;;;;;4975135;28;20437;-87
2023/09/13 10:20:31;;;;;;;10.13;7.25;;;;;;;;;;4980936;28;20110;-86
2023/09/13 10:23:28;;;;;;;10.50;7.28;;;;;;;;;;4986917;28;20153;-86
2023/09/13 10:25:59;;;;;;;9.82;7.10;;;;;;;;;;4986612;28;20089;-84
2023/09/13 10:28:39;;;;;;;9.27;7.13;;;;;;;;;;4988503;28;20050;-86
2023/09/13 10:31:19;;;;;;;9.27;7.18;;;;;;;;;;4991914;28;20050;-86
2023/09/13 10:36:41;;;;;;;10.55;7.15;;;;;;;;;;4981119;28;20074;-86
2023/09/13 10:39:32;;;;;;;8.50;6.70;;;;;;;;;;4984085;28;20452;-85
2023/09/13 10:42:04;;;;;;;10.82;7.38;;;;;;;;;;4971839;28;20063;-85
2023/09/13 10:44:33;;;;;;;10.52;7.60;;;;;;;;;;4975093;28;20051;-86
2023/09/13 10:47:01;;;;;;;10.48;7.47;;;;;;;;;;4984000;28;20046;-85
2023/09/13 10:49:40;;;;;;;15.90;7.80;;;;;;;;;;4985101;28;20581;-85
2023/09/13 10:52:24;;;;;;;8.80;7.35;;;;;;;;;;4987380;28;20134;-84
2023/09/13 10:55:03;;;;;;;10.07;7.10;;;;;;;;;;4972712;28;20070;-86
2023/09/13 10:57:41;;;;;;;8.95;7.10;;;;;;;;;;4985411;28;20077;-86
2023/09/13 11:00:16;;;;;;;8.70;6.55;;;;;;;;;;4982940;28;20043;-86
2023/09/13 11:03:02;;;;;;;11.52;8.02;;;;;;;;;;4982189;28;20387;-86
2023/09/13 11:05:31;;;;;;;9.50;7.07;;;;;;;;;;4982542;28;20051;-87
2023/09/13 11:08:16;;;;;;;9.95;7.60;;;;;;;;;;4982228;28;20116;-86
2023/09/13 11:10:53;;;;;;;10.30;7.78;;;;;;;;;;4982074;28;20442;-87
2023/09/13 11:13:49;;;;;;;10.32;7.57;;;;;;;;;;4981215;28;20100;-86
2023/09/13 11:16:23;;;;;;;11.50;7.38;;;;;;;;;;4985885;28;20093;-87
2023/09/13 11:19:06;;;;;;;10.57;7.63;;;;;;;;;;4980472;28;20057;-87
2023/09/13 11:21:51;;;;;;;11.57;8.65;;;;;;;;;;4983358;28;20061;-86
2023/09/13 11:24:40;;;;;;;11.63;8.55;;;;;;;;;;4982733;28;20050;-86
2023/09/13 11:27:27;;;;;;;13.10;9.68;;;;;;;;;;4982140;28;20055;-87
2023/09/13 11:30:45;;;;;;;13.10;9.23;;;;;;;;;;4976886;28;20578;-87
2023/09/13 11:36:20;;;;;;;14.40;10.63;;;;;;;;;;4975714;28;20057;-85
2023/09/13 11:39:25;;;;;;;19.10;12.50;;;;;;;;;;4980492;28;20057;-86
2023/09/13 11:42:15;;;;;;;15.88;10.80;;;;;;;;;;4980905;28;20288;-85
2023/09/13 11:45:16;;;;;;;16.13;11.60;;;;;;;;;;4919529;29;20059;-85
2023/09/13 11:50:55;;;;;;;16.00;11.48;;;;;;;;;;4982423;28;20130;-85
2023/09/13 11:53:27;;;;;;;14.30;11.35;;;;;;;;;;4973131;28;20047;-86
2023/09/13 11:56:04;;;;;;;14.07;10.23;;;;;;;;;;4986768;28;20048;-87
2023/09/13 11:58:42;;;;;;;14.50;11.02;;;;;;;;;;4983365;28;20065;-87
2023/09/13 12:01:11;;;;;;;16.65;10.90;;;;;;;;;;4984292;28;20054;-86
2023/09/13 12:04:02;;;;;;;;;;;;;;;;;;;;;
2023/09/13 12:06:32;;;;;;;16.27;11.57;;;;;;;;;;4982448;28;20066;-86
2023/09/13 12:09:03;;;;;;;17.50;11.20;;;;;;;;;;4985191;28;20113;-86
2023/09/13 12:14:23;;;;;;;14.77;10.60;;;;;;;;;;4974451;28;20073;-85
2023/09/13 12:16:55;;;;;;;14.88;10.65;;;;;;;;;;4975912;28;20042;-85
2023/09/13 12:19:59;;;;;;;15.88;10.82;;;;;;;;;;4980989;28;20081;-85
2023/09/13 12:22:44;;;;;;;15.80;11.77;;;;;;;;;;4985551;28;20134;-86
2023/09/13 12:25:17;;;;;;;16.20;11.27;;;;;;;;;;4989374;28;20090;-88
2023/09/13 12:27:56;;;;;;;15.65;11.40;;;;;;;;;;4990207;28;20065;-86
2023/09/13 12:30:32;;;;;;;14.32;11.05;;;;;;;;;;4982573;28;20097;-88
2023/09/13 12:33:03;;;;;;;17.05;11.55;;;;;;;;;;4979199;28;20549;-87
2023/09/13 12:35:41;;;;;;;16.13;11.35;;;;;;;;;;4982022;28;20070;-86
2023/09/13 12:38:13;;;;;;;16.70;12.95;;;;;;;;;;4984522;28;20070;-87
2023/09/13 12:41:24;;;;;;;16.40;12.23;;;;;;;;;;4990542;28;20073;-88
2023/09/13 12:43:59;;;;;;;18.80;12.88;;;;;;;;;;4988469;28;20074;-86
2023/09/13 12:46:28;;;;;;;18.10;13.15;;;;;;;;;;5009411;28;20049;-88
2023/09/13 12:49:04;;;;;;;18.30;13.50;;;;;;;;;;5004650;28;20046;-89
2023/09/13 12:51:45;;;;;;;17.88;14.38;;;;;;;;;;5000937;28;20034;-86
2023/09/13 12:54:19;;;;;;;16.23;13.23;;;;;;;;;;4989539;28;20047;-86
2023/09/13 12:56:49;;;;;;;19.60;13.25;;;;;;;;;;4983055;28;20047;-86
2023/09/13 12:59:26;;;;;;;18.08;13.00;;;;;;;;;;4980473;28;20065;-85
2023/09/13 13:02:09;;;;;;;15.80;12.27;;;;;;;;;;4987907;28;20054;-87
2023/09/13 13:04:39;;;;;;;16.65;10.68;;;;;;;;;;4985836;28;20580;-86
2023/09/13 13:07:21;;;;;;;14.70;9.88;;;;;;;;;;4984377;28;20065;-87
2023/09/13 13:09:50;;;;;;;12.23;8.88;;;;;;;;;;4983637;28;20066;-87
2023/09/13 13:12:30;;;;;;;;;;;;;;;;;;;;;
2023/09/13 13:15:04;;;;;;;15.23;10.52;;;;;;;;;;4983133;28;20054;-87
2023/09/13 13:17:38;;;;;;;15.20;10.93;;;;;;;;;;4985532;28;20054;-84
2023/09/13 13:20:06;;;;;;;16.92;10.25;;;;;;;;;;4981547;28;20051;-87
2023/09/13 13:28:40;;;;;;;10.68;6.93;;;;;;;;;;4951498;28;20539;-86
2023/09/13 13:31:12;;;;;;;10.13;7.70;;;;;;;;;;4977830;28;20133;-86
2023/09/13 13:33:43;;;;;;;10.27;8.15;;;;;;;;;;4985902;28;20058;-86
2023/09/13 13:36:10;;;;;;;9.88;7.25;;;;;;;;;;4978535;28;20070;-85
2023/09/13 13:38:40;;;;;;;9.90;8.40;;;;;;;;;;4984369;28;20047;-83
2023/09/13 13:41:10;;;;;;;23.00;12.52;;;;;;;;;;4983377;28;20046;-85
2023/09/13 13:43:39;;;;;;;23.65;13.30;;;;;;;;;;4989585;28;20050;-84
2023/09/13 13:46:07;;;;;;;15.57;9.93;;;;;;;;;;4989577;28;20124;-84
2023/09/13 13:48:40;;;;;;;15.48;10.30;;;;;;;;;;4974886;28;20058;-86
2023/09/13 13:51:06;;;;;;;13.20;9.57;;;;;;;;;;4983093;28;20062;-86
2023/09/13 13:53:33;;;;;;;14.80;9.90;;;;;;;;;;4977797;28;20085;-86
2023/09/13 13:56:01;;;;;;;14.20;9.20;;;;;;;;;;4985188;28;20043;-86
2023/09/13 13:58:28;;;;;;;13.52;9.90;;;;;;;;;;4984112;28;20114;-87
2023/09/13 14:00:56;;;;;;;13.05;9.52;;;;;;;;;;4981042;28;20050;-86
2023/09/13 14:03:24;;;;;;;13.18;10.40;;;;;;;;;;4976874;28;20141;-86
2023/09/13 14:05:54;;;;;;;14.95;11.85;;;;;;;;;;4975591;28;20054;-86
2023/09/13 14:08:21;;;;;;;;;;;;;;;;;;4977501;28;20058;-86
2023/09/13 14:10:52;;;;;;;15.80;12.30;;;;;;;;;;4980038;28;19922;-86
2023/09/13 14:13:22;;;;;;;17.55;12.60;;;;;;;;;;4975255;28;20047;-85
2023/09/13 14:15:56;;;;;;;19.52;14.18;;;;;;;;;;4977818;28;20051;-86
2023/09/13 14:18:23;;;;;;;20.38;13.82;;;;;;;;;;4976905;28;20133;-85
2023/09/13 14:20:57;;;;;;;16.58;12.45;;;;;;;;;;4980811;28;20074;-86
2023/09/13 14:23:28;;;;;;;15.32;12.07;;;;;;;;;;4977270;28;20074;-86
2023/09/13 14:25:58;;;;;;;15.05;12.63;;;;;;;;;;4982497;28;20054;-85
2023/09/13 14:28:31;;;;;;;15.30;12.00;;;;;;;;;;4989829;28;20050;-85
2023/09/13 14:31:03;;;;;;;15.70;11.27;;;;;;;;;;4990097;28;20657;-86
2023/09/13 14:33:37;;;;;;;16.08;11.80;;;;;;;;;;4979119;28;20460;-86
2023/09/13 14:36:15;;;;;;;14.13;11.10;;;;;;;;;;4974009;28;20047;-85
2023/09/13 14:38:47;;;;;;;17.85;10.88;;;;;;;;;;4977682;28;20524;-85
2023/09/13 14:41:29;;;;;;;15.07;10.95;;;;;;;;;;4980416;28;20133;-86
2023/09/13 14:44:05;;;;;;;15.80;12.07;;;;;;;;;;4977012;28;20544;-85
2023/09/13 14:46:40;;;;;;;15.73;11.45;;;;;;;;;;4988639;28;20068;-85
2023/09/13 14:49:20;;;;;;;14.20;11.32;;;;;;;;;;4982818;28;20142;-85
2023/09/13 14:51:52;;;;;;;17.40;11.55;;;;;;;;;;4980031;28;20046;-84
2023/09/13 14:54:29;;;;;;;13.80;9.63;;;;;;;;;;4983949;28;20057;-84
2023/09/13 14:57:01;;;;;;;13.80;10.07;;;;;;;;;;4986038;28;20046;-85
2023/09/13 14:59:43;;;;;;;10.48;9.00;;;;;;;;;;4979873;28;20055;-85
2023/09/13 15:02:18;;;;;;;12.27;8.63;;;;;;;;;;4982563;28;20124;-87
2023/09/13 15:04:54;;;;;;;13.23;8.75;;;;;;;;;;4984728;28;20050;-85
2023/09/13 15:07:28;;;;;;;15.20;9.73;;;;;;;;;;4981221;28;20054;-85
2023/09/13 15:09:55;;;;;;;16.40;11.02;;;;;;;;;;4990531;23;20138;-54
2023/09/13 15:12:23;;;;;;;15.27;12.02;;;;;;;;;;4981086;28;20043;-58
2023/09/13 15:14:50;;;;;;;13.57;9.82;;;;;;;;;;4981760;28;20203;-54
2023/09/13 15:17:16;;;;;;;14.45;10.70;;;;;;;;;;4983277;28;20509;-58
2023/09/13 15:19:43;;;;;;;14.90;10.15;;;;;;;;;;4975125;28;20061;-55
2023/09/13 15:22:10;;;;;;;13.90;9.57;;;;;;;;;;4979522;28;20046;-58
2023/09/13 15:24:39;;;;;;;15.45;9.82;;;;;;;;;;4983241;28;20107;-51
2023/09/13 15:27:06;;;;;;;14.23;10.02;;;;;;;;;;4974748;28;20061;-59
2023/09/13 15:29:33;;;;;;;14.32;9.82;;;;;;;;;;4974795;28;20083;-59
2023/09/13 15:31:59;;;;;;;17.75;10.57;;;;;;;;;;4974662;28;20050;-59
2023/09/13 15:34:26;;;;;;;14.75;9.93;;;;;;;;;;4974706;28;20261;-59
2023/09/13 15:36:53;;;;;;;13.77;9.38;;;;;;;;;;4968172;28;20053;-60